Wetterdaten: Mittwoch, 24.12.2014
Datum Zeit Temp. A. Feuchte A. Luftdruck Regen Wind Richtung Richtung Sonnenschein ET UV Solar Taupunkt Windchill Windben Empfang
24.12.2014 00:00 1,6 C 52 % 1021,8 hPa 0,0 l/m 0,0 km/h (0 Bft) S-SW 200 0 min 0,000 mm 0,0 UV-I 0 W/m -7,2 C 1,6 C 0,0 km/h (0 Bft) 0,00 %
24.12.2014 01:00 -0,1 C 62 % 1021,7 hPa 0,0 l/m 0,0 km/h (0 Bft) S-SW 200 0 min 0,000 mm 0,0 UV-I 0 W/m -6,5 C -0,1 C 0,0 km/h (0 Bft) 0,00 %
24.12.2014 02:00 0,9 C 59 % 1021,5 hPa 0,0 l/m 0,0 km/h (0 Bft) SW 230 0 min 0,000 mm 0,0 UV-I 0 W/m -6,2 C 0,9 C 0,0 km/h (0 Bft) 0,00 %
24.12.2014 03:00 0,4 C 60 % 1021,3 hPa 0,0 l/m 0,0 km/h (0 Bft) S 180 0 min 0,000 mm 0,0 UV-I 0 W/m -6,4 C 0,4 C 0,0 km/h (0 Bft) 0,00 %
24.12.2014 04:00 -0,9 C 65 % 1021,1 hPa 0,0 l/m 0,0 km/h (0 Bft) S-SW 200 0 min 0,000 mm 0,0 UV-I 0 W/m -6,6 C -0,9 C 0,0 km/h (0 Bft) 0,00 %
24.12.2014 05:00 -0,9 C 62 % 1021,1 hPa 0,0 l/m 0,0 km/h (0 Bft) S 180 0 min 0,000 mm 0,0 UV-I 0 W/m -7,2 C -0,9 C 0,0 km/h (0 Bft) 0,00 %
24.12.2014 06:00 -1,3 C 65 % 1020,8 hPa 0,0 l/m 0,0 km/h (0 Bft) SW 230 0 min 0,000 mm 0,0 UV-I 0 W/m -7,0 C -1,3 C 0,0 km/h (0 Bft) 0,00 %
24.12.2014 07:00 -1,3 C 64 % 1021,2 hPa 0,0 l/m 0,0 km/h (0 Bft) S 180 0 min 0,000 mm 0,0 UV-I 0 W/m -7,2 C -1,3 C 0,0 km/h (0 Bft) 0,00 %
24.12.2014 08:00 -1,6 C 63 % 1021,2 hPa 0,0 l/m 0,0 km/h (0 Bft) S 180 0 min 0,000 mm 0,0 UV-I 3 W/m -7,7 C -1,6 C 0,0 km/h (0 Bft) 0,00 %
24.12.2014 09:00 4,5 C 45 % 1020,7 hPa 0,0 l/m 3,2 km/h (1 Bft) W 270 0 min 0,000 mm 1,0 UV-I 46 W/m -6,4 C 4,5 C 7,9 km/h (2 Bft) 0,00 %
24.12.2014 10:00 3,1 C 55 % 1021,2 hPa 0,0 l/m 0,0 km/h (0 Bft) SW 220 0 min 0,000 mm 1,0 UV-I 62 W/m -5,0 C 3,1 C 0,0 km/h (0 Bft) 0,00 %
24.12.2014 11:00 4,0 C 61 % 1022,7 hPa 0,0 l/m 4,7 km/h (1 Bft) SW 230 0 min 0,000 mm 1,0 UV-I 69 W/m -2,8 C 4,0 C 7,9 km/h (2 Bft) 0,00 %
24.12.2014 12:00 5,6 C 53 % 1021,7 hPa 0,0 l/m 0,0 km/h (0 Bft) W 270 0 min 0,000 mm 1,0 UV-I 71 W/m -3,2 C 5,6 C 0,0 km/h (0 Bft) 0,00 %
24.12.2014 13:00 6,9 C 51 % 1020,8 hPa 0,0 l/m 9,3 km/h (2 Bft) W 270 0 min 0,000 mm 1,0 UV-I 71 W/m -2,5 C 4,6 C 11,9 km/h (2 Bft) 0,00 %
24.12.2014 14:00 7,5 C 50 % 1020,3 hPa 0,0 l/m 2,9 km/h (1 Bft) SW 220 0 min 0,000 mm 1,0 UV-I 66 W/m -2,2 C 7,5 C 7,9 km/h (2 Bft) 0,00 %
24.12.2014 15:00 8,4 C 49 % 1019,8 hPa 0,0 l/m 0,3 km/h (0 Bft) N 359 0 min 0,000 mm 1,0 UV-I 66 W/m -1,7 C 8,4 C 4,0 km/h (1 Bft) 0,00 %
24.12.2014 16:00 5,6 C 54 % 1020,3 hPa 0,0 l/m 2,1 km/h (1 Bft) W-SW 250 0 min 0,000 mm 0,0 UV-I 3 W/m -3,0 C 5,6 C 4,0 km/h (1 Bft) 0,00 %
24.12.2014 17:00 5,0 C 54 % 1020,1 hPa 0,0 l/m 0,0 km/h (0 Bft) O 90 0 min 0,000 mm 0,0 UV-I 0 W/m -3,5 C 5,0 C 0,0 km/h (0 Bft) 0,00 %
24.12.2014 18:00 4,7 C 58 % 1019,1 hPa 0,0 l/m 0,3 km/h (0 Bft) W-SW 240 0 min 0,000 mm 0,0 UV-I 0 W/m -2,8 C 4,7 C 4,0 km/h (1 Bft) 0,00 %
24.12.2014 19:00 5,0 C 61 % 1019,0 hPa 0,0 l/m 1,4 km/h (1 Bft) O 90 0 min 0,000 mm 0,0 UV-I 0 W/m -1,9 C 5,0 C 4,0 km/h (1 Bft) 0,00 %
24.12.2014 20:00 5,7 C 59 % 1018,9 hPa 0,0 l/m 4,7 km/h (1 Bft) SW 230 0 min 0,000 mm 0,0 UV-I 0 W/m -1,7 C 5,7 C 11,9 km/h (2 Bft) 0,00 %
24.12.2014 21:00 5,6 C 60 % 1019,4 hPa 0,0 l/m 5,8 km/h (2 Bft) SW 230 0 min 0,000 mm 0,0 UV-I 0 W/m -1,5 C 5,6 C 11,9 km/h (2 Bft) 0,00 %
24.12.2014 22:00 6,3 C 57 % 1018,8 hPa 0,0 l/m 0,3 km/h (0 Bft) O 90 0 min 0,000 mm 0,0 UV-I 0 W/m -1,6 C 6,3 C 4,0 km/h (1 Bft) 0,00 %
24.12.2014 23:00 5,4 C 60 % 1019,4 hPa 0,0 l/m 0,0 km/h (0 Bft) NO 40 0 min 0,000 mm 0,0 UV-I 0 W/m -1,7 C 5,4 C 0,0 km/h (0 Bft) 0,00 %
_ Min-Zeit 08:00 09:00 22:00 - 00:00 - - - - - - 08:00 08:00 00:00 00:00
Minimum _ -1,6 C 45 % 1018,8 hPa - 0,0 km/h (0 Bft) - - - - - - -7,7 C -1,6 C 0,0 km/h (0 Bft) 0,00 %
_ Max-Zeit 15:00 04:00 11:00 00:00 13:00 - - 00:00 00:00 09:00 12:00 21:00 15:00 13:00 00:00
Maximum _ 8,4 C 65 % 1022,7 hPa 0,0 l/m 9,3 km/h
W (2 Bft)
- - 0 min 0,000 mm 1,0 UV-I 71 W/m -1,5 C 8,4 C 11,9 km/h
W (2 Bft)
0,00 %
Durchschnitt _ 3,4 C 58 % 1020,5 hPa #0,0 l/m 1,5 km/h (1 Bft) SW - #0 min. #0,000 mm 1,0 UV-I 51 W/m -4,2 C 3,3 C 3,4 km/h (1 Bft) 0,00 %